aviador You're here:

KASD Decoded Metar

SLIDELL 22 in LA, USA
Report Time2017-04-28 07:53:00
UTC Time2017-04-28 08:12:05
Flight Rules ifr IFR
Wind160° at 10 kt
W.Decomp.*RWY 18: 9.3 kt HW 3.7 kt LCW
W.Rank160° ranks 5
Current wind is above 160° avg. (7.6)
Visibility9999 m
Phenomena:N/A
Clouds:Overcast 009 Hf
Expected CloudBase > 400 ft AGL from Temp-Dew spread
Ceiling900 ft
Temp24°C (ISA +9)
Dew Point23°C (94% RH)
QNH1008 hPa
Density Alt1,617 ft
Elevation30 ft
Report Wrong Elevation
Raw Report
KASD 280753Z AUTO 16010KT 9SM OVC009 24/23 A2978 RMK AO2 CIG
008V012 SLP083 T02440228=

Extra information for KASD:More info

Metar Taf Metar & Taf Last 4 Metars F.Rules Stats Wind Profile Meteogram Temp Stats Airport Information Weather charts Add Link Nearby VenuesMetar ALERT Operation Metar Decoded Social comments

AIRNAV info for KASD